createdAt,value
2022-08-21T00:01:42.580Z,17.02
2022-08-21T00:04:11.278Z,16.99
2022-08-21T00:06:42.280Z,16.96
2022-08-21T00:09:11.239Z,16.96
2022-08-21T00:11:39.755Z,16.95
2022-08-21T00:14:08.437Z,16.95
2022-08-21T00:16:36.088Z,16.92
2022-08-21T00:19:03.910Z,16.86
2022-08-21T00:21:31.571Z,16.82
2022-08-21T00:23:59.252Z,16.77
2022-08-21T00:26:28.553Z,16.76
2022-08-21T00:28:56.162Z,16.71
2022-08-21T00:31:26.560Z,16.68
2022-08-21T00:33:54.376Z,16.65
2022-08-21T00:36:28.340Z,16.63
2022-08-21T00:38:55.886Z,16.61
2022-08-21T00:41:37.911Z,16.59
2022-08-21T00:44:08.089Z,16.63
2022-08-21T00:46:35.753Z,16.79
2022-08-21T00:49:03.334Z,17.03
2022-08-21T00:51:44.281Z,17.27
2022-08-21T00:54:18.960Z,17.47
2022-08-21T00:56:47.647Z,17.64
2022-08-21T00:59:17.867Z,17.79
2022-08-21T01:01:45.499Z,17.93
2022-08-21T01:04:13.242Z,18.02
2022-08-21T01:06:40.867Z,18.09
2022-08-21T01:09:08.493Z,18.13
2022-08-21T01:11:36.215Z,18.16
2022-08-21T01:14:04.122Z,18.23
2022-08-21T01:16:34.473Z,18.29
2022-08-21T01:19:02.097Z,18.34
2022-08-21T01:21:31.092Z,18.40
2022-08-21T01:23:59.042Z,18.45
2022-08-21T01:26:34.159Z,18.49
2022-08-21T01:29:04.778Z,18.54
2022-08-21T01:31:33.905Z,18.58
2022-08-21T01:34:01.549Z,18.61
2022-08-21T01:36:29.553Z,18.63
2022-08-21T01:38:58.734Z,18.64
2022-08-21T01:41:26.442Z,18.64
2022-08-21T01:43:53.987Z,18.63
2022-08-21T01:46:21.551Z,18.63
2022-08-21T01:48:49.277Z,18.65
2022-08-21T01:51:16.859Z,18.67
2022-08-21T01:53:44.441Z,18.68
2022-08-21T01:56:14.657Z,18.67
2022-08-21T01:58:43.644Z,18.67
2022-08-21T02:01:12.053Z,18.69
2022-08-21T02:03:39.714Z,18.70
2022-08-21T02:06:08.848Z,18.69
2022-08-21T02:08:36.587Z,18.70
2022-08-21T02:11:04.231Z,18.71
2022-08-21T02:13:33.278Z,18.71
2022-08-21T02:16:00.900Z,18.72
2022-08-21T02:18:28.753Z,18.72
2022-08-21T02:20:56.787Z,18.70
2022-08-21T02:23:27.391Z,18.69
2022-08-21T02:25:55.296Z,18.68
2022-08-21T02:28:22.967Z,18.68
2022-08-21T02:30:52.709Z,18.67
2022-08-21T02:33:20.328Z,18.67
2022-08-21T02:35:48.958Z,18.66
2022-08-21T02:38:18.440Z,18.65
2022-08-21T02:40:51.105Z,18.64
2022-08-21T02:43:19.581Z,18.64
2022-08-21T02:45:47.800Z,18.64
2022-08-21T02:48:18.158Z,18.65
2022-08-21T02:50:49.081Z,18.65
2022-08-21T02:53:17.776Z,18.65
2022-08-21T02:55:46.404Z,18.66
2022-08-21T02:58:14.154Z,18.68
2022-08-21T03:00:42.579Z,18.66
2022-08-21T03:03:10.137Z,18.64
2022-08-21T03:05:39.424Z,18.43
2022-08-21T03:08:10.418Z,18.19
2022-08-21T03:10:38.340Z,18.00
2022-08-21T03:13:05.886Z,17.85
2022-08-21T03:15:33.511Z,17.69
2022-08-21T03:18:01.203Z,17.57
2022-08-21T03:20:29.652Z,17.48
2022-08-21T03:22:58.729Z,17.41
2022-08-21T03:25:40.079Z,17.34
2022-08-21T03:28:10.617Z,17.29
2022-08-21T03:30:40.653Z,17.26
2022-08-21T03:33:08.219Z,17.22
2022-08-21T03:35:35.868Z,17.20
2022-08-21T03:38:04.855Z,17.16
2022-08-21T03:40:32.621Z,17.13
2022-08-21T03:43:00.317Z,17.08
2022-08-21T03:45:28.558Z,17.06
2022-08-21T03:47:58.177Z,17.04
2022-08-21T03:50:26.691Z,17.00
2022-08-21T03:52:54.453Z,16.99
2022-08-21T03:55:23.383Z,16.96
2022-08-21T03:57:51.178Z,16.95
2022-08-21T04:00:19.850Z,16.93
2022-08-21T04:02:47.504Z,16.89
2022-08-21T04:05:27.893Z,16.86
2022-08-21T04:07:59.470Z,16.85
2022-08-21T04:10:29.501Z,16.83
2022-08-21T04:12:57.736Z,16.79
2022-08-21T04:15:26.790Z,16.73
2022-08-21T04:17:55.776Z,16.66
2022-08-21T04:20:23.464Z,16.65
2022-08-21T04:22:52.847Z,16.61
2022-08-21T04:25:20.890Z,16.58
2022-08-21T04:27:49.834Z,16.54
2022-08-21T04:30:17.818Z,16.52
2022-08-21T04:32:46.279Z,16.47
2022-08-21T04:35:15.316Z,16.42
2022-08-21T04:37:42.871Z,16.38
2022-08-21T04:40:11.467Z,16.34
2022-08-21T04:42:43.444Z,16.32
2022-08-21T04:45:16.380Z,16.32
2022-08-21T04:47:52.561Z,16.30
2022-08-21T04:50:20.964Z,16.31
2022-08-21T04:53:04.681Z,16.31
2022-08-21T04:55:32.510Z,16.30
2022-08-21T04:58:01.011Z,16.28
2022-08-21T05:00:30.123Z,16.25
2022-08-21T05:03:00.255Z,16.23
2022-08-21T05:05:29.901Z,16.22
2022-08-21T05:07:58.607Z,16.25
2022-08-21T05:10:26.607Z,16.26
2022-08-21T05:12:54.364Z,16.29
2022-08-21T05:15:22.115Z,16.33
2022-08-21T05:17:55.468Z,16.37
2022-08-21T05:20:28.711Z,16.39
2022-08-21T05:22:56.301Z,16.44
2022-08-21T05:25:24.254Z,16.48
2022-08-21T05:27:52.010Z,16.54
2022-08-21T05:30:20.859Z,16.62
2022-08-21T05:32:48.660Z,16.69
2022-08-21T05:35:17.614Z,16.78
2022-08-21T05:37:45.128Z,16.85
2022-08-21T05:40:22.243Z,16.94
2022-08-21T05:42:54.236Z,17.09
2022-08-21T05:45:41.351Z,17.23
2022-08-21T05:48:12.347Z,17.37
2022-08-21T05:50:41.697Z,17.49
2022-08-21T05:53:10.399Z,17.62
2022-08-21T05:55:44.207Z,17.72
2022-08-21T05:58:13.211Z,17.86
2022-08-21T06:00:40.855Z,17.99
2022-08-21T06:03:12.575Z,18.08
2022-08-21T06:05:41.405Z,18.21
2022-08-21T06:08:08.996Z,18.32
2022-08-21T06:10:36.530Z,18.44
2022-08-21T06:13:04.292Z,18.56
2022-08-21T06:15:31.939Z,18.62
2022-08-21T06:17:59.508Z,18.69
2022-08-21T06:20:27.682Z,18.74
2022-08-21T06:22:56.671Z,18.77
2022-08-21T06:25:25.066Z,18.78
2022-08-21T06:27:52.633Z,18.80
2022-08-21T06:30:20.306Z,18.84
2022-08-21T06:32:47.913Z,18.86
2022-08-21T06:35:15.481Z,18.91
2022-08-21T06:37:42.968Z,18.98
2022-08-21T06:40:13.076Z,19.13
2022-08-21T06:42:41.384Z,19.40
2022-08-21T06:45:11.152Z,19.74
2022-08-21T06:47:38.804Z,20.10
2022-08-21T06:50:08.491Z,20.51
2022-08-21T06:52:36.132Z,20.92
2022-08-21T06:55:03.755Z,21.35
2022-08-21T06:57:32.683Z,21.87
2022-08-21T07:00:00.216Z,22.43
2022-08-21T07:02:27.889Z,22.91
2022-08-21T07:04:55.547Z,23.41
2022-08-21T07:07:23.108Z,23.75
2022-08-21T07:09:50.652Z,24.19
2022-08-21T07:12:18.231Z,24.69
2022-08-21T07:14:47.140Z,25.20
2022-08-21T07:17:14.701Z,25.61
2022-08-21T07:19:42.292Z,25.99
2022-08-21T07:22:10.086Z,26.54
2022-08-21T07:24:37.671Z,26.88
2022-08-21T07:27:09.813Z,27.07
2022-08-21T07:29:37.682Z,27.35
2022-08-21T07:32:07.482Z,27.57
2022-08-21T07:34:35.071Z,27.60
2022-08-21T07:37:09.891Z,27.77
2022-08-21T07:39:37.740Z,28.27
2022-08-21T07:42:08.391Z,28.65
2022-08-21T07:44:36.211Z,28.99
2022-08-21T07:47:04.018Z,29.40
2022-08-21T07:49:33.039Z,29.54
2022-08-21T07:52:00.691Z,29.62
2022-08-21T07:54:33.457Z,29.64
2022-08-21T07:57:02.486Z,29.56
2022-08-21T07:59:30.405Z,29.87
2022-08-21T08:01:58.545Z,30.33
2022-08-21T08:04:26.738Z,30.73
2022-08-21T08:06:55.711Z,30.95
2022-08-21T08:09:23.253Z,31.23
2022-08-21T08:11:50.801Z,31.54
2022-08-21T08:14:18.484Z,31.74
2022-08-21T08:16:46.223Z,31.66
2022-08-21T08:19:13.792Z,31.70
2022-08-21T08:21:41.392Z,31.78
2022-08-21T08:24:18.441Z,32.03
2022-08-21T08:26:53.670Z,32.25
2022-08-21T08:29:21.733Z,32.53
2022-08-21T08:31:49.366Z,32.65
2022-08-21T08:34:23.610Z,32.64
2022-08-21T08:36:56.164Z,32.53
2022-08-21T08:39:26.656Z,32.69
2022-08-21T08:42:01.597Z,32.89
2022-08-21T08:44:30.423Z,32.89
2022-08-21T08:46:59.298Z,32.84
2022-08-21T08:49:32.670Z,32.93
2022-08-21T08:52:04.470Z,32.96
2022-08-21T08:54:35.722Z,33.04
2022-08-21T08:57:04.211Z,33.10
2022-08-21T08:59:41.820Z,32.92
2022-08-21T09:02:12.649Z,32.75
2022-08-21T09:04:40.556Z,32.70
2022-08-21T09:07:14.797Z,32.52
2022-08-21T09:10:00.927Z,32.71
2022-08-21T09:12:35.062Z,32.94
2022-08-21T09:15:08.609Z,32.76
2022-08-21T09:17:41.399Z,32.60
2022-08-21T09:20:18.795Z,32.27
2022-08-21T09:22:52.931Z,32.01
2022-08-21T09:25:24.141Z,31.74
2022-08-21T09:27:52.197Z,31.47
2022-08-21T09:30:21.815Z,31.01
2022-08-21T09:32:49.382Z,31.06
2022-08-21T09:35:18.329Z,31.18
2022-08-21T09:37:51.343Z,31.32
2022-08-21T09:40:25.321Z,31.34
2022-08-21T09:42:56.735Z,31.52
2022-08-21T09:45:24.362Z,31.48
2022-08-21T09:47:51.940Z,31.40
2022-08-21T09:50:21.912Z,31.15
2022-08-21T09:52:52.321Z,31.18
2022-08-21T09:55:48.343Z,31.33
2022-08-21T09:58:16.108Z,31.76
2022-08-21T10:00:44.339Z,31.70
2022-08-21T10:03:14.060Z,31.64
2022-08-21T10:05:42.290Z,31.85
2022-08-21T10:08:18.685Z,31.92
2022-08-21T10:10:52.587Z,32.07
2022-08-21T10:13:30.937Z,32.28
2022-08-21T10:16:03.067Z,32.05
2022-08-21T10:18:36.664Z,31.61
2022-08-21T10:21:11.396Z,31.33
2022-08-21T10:23:46.276Z,31.22
2022-08-21T10:26:23.006Z,31.27
2022-08-21T10:28:57.597Z,31.15
2022-08-21T10:31:41.468Z,30.70
2022-08-21T10:34:16.930Z,30.56
2022-08-21T10:36:51.880Z,30.85
2022-08-21T10:39:35.264Z,31.22
2022-08-21T10:42:19.465Z,31.26
2022-08-21T10:44:51.052Z,31.03
2022-08-21T10:47:22.262Z,31.11
2022-08-21T10:49:55.816Z,31.01
2022-08-21T10:52:35.464Z,30.74
2022-08-21T10:55:05.976Z,30.57
2022-08-21T10:57:38.980Z,30.33
2022-08-21T11:00:09.400Z,30.17
2022-08-21T11:02:39.831Z,29.99
2022-08-21T11:05:09.411Z,29.90
2022-08-21T11:07:38.371Z,29.88
2022-08-21T11:10:11.494Z,29.98
2022-08-21T11:12:43.803Z,30.01
2022-08-21T11:15:29.033Z,30.07
2022-08-21T11:18:02.308Z,30.39
2022-08-21T11:20:30.895Z,30.41
2022-08-21T11:23:04.089Z,30.19
2022-08-21T11:25:36.910Z,30.22
2022-08-21T11:28:12.159Z,30.45
2022-08-21T11:30:49.508Z,30.77
2022-08-21T11:33:27.485Z,30.66
2022-08-21T11:36:05.037Z,30.69
2022-08-21T11:38:36.270Z,30.43
2022-08-21T11:41:21.351Z,30.17
2022-08-21T11:43:53.540Z,30.22
2022-08-21T11:46:27.496Z,30.39
2022-08-21T11:49:01.698Z,30.42
2022-08-21T11:51:32.356Z,30.21
2022-08-21T11:54:03.873Z,30.13
2022-08-21T11:56:38.081Z,30.07
2022-08-21T11:59:08.662Z,30.00
2022-08-21T12:01:39.037Z,30.00
2022-08-21T12:04:09.672Z,29.95
2022-08-21T12:06:39.036Z,29.70
2022-08-21T12:09:07.965Z,29.36
2022-08-21T12:11:47.793Z,29.35
2022-08-21T12:14:17.815Z,29.31
2022-08-21T12:16:47.388Z,29.39
2022-08-21T12:19:15.657Z,29.56
2022-08-21T12:21:50.378Z,29.64
2022-08-21T12:24:20.648Z,29.64
2022-08-21T12:26:52.454Z,29.63
2022-08-21T12:29:25.691Z,29.57
2022-08-21T12:31:55.883Z,29.58
2022-08-21T12:34:25.652Z,29.49
2022-08-21T12:36:57.443Z,29.45
2022-08-21T12:39:26.558Z,29.55
2022-08-21T12:42:01.616Z,29.59
2022-08-21T12:44:36.046Z,29.53
2022-08-21T12:47:05.570Z,29.42
2022-08-21T12:49:35.011Z,29.32
2022-08-21T12:52:04.366Z,29.22
2022-08-21T12:54:32.853Z,29.32
2022-08-21T12:57:01.212Z,29.39
2022-08-21T12:59:28.997Z,29.25
2022-08-21T13:01:58.767Z,29.08
2022-08-21T13:04:34.252Z,28.98
2022-08-21T13:07:02.173Z,28.95
2022-08-21T13:09:31.505Z,29.01
2022-08-21T13:11:59.448Z,29.19
2022-08-21T13:14:30.349Z,29.38
2022-08-21T13:17:00.869Z,29.40
2022-08-21T13:19:30.467Z,29.41
2022-08-21T13:21:58.180Z,29.36
2022-08-21T13:24:41.782Z,29.29
2022-08-21T13:27:24.800Z,29.17
2022-08-21T13:30:02.708Z,28.87
2022-08-21T13:32:33.099Z,28.67
2022-08-21T13:35:01.101Z,28.52
2022-08-21T13:37:29.929Z,28.46
2022-08-21T13:39:57.799Z,28.41
2022-08-21T13:42:25.564Z,28.26
2022-08-21T13:44:54.585Z,27.99
2022-08-21T13:47:22.301Z,27.90
2022-08-21T13:49:54.775Z,27.81
2022-08-21T13:52:27.139Z,27.60
2022-08-21T13:54:57.108Z,27.37
2022-08-21T13:57:27.853Z,27.32
2022-08-21T14:00:11.040Z,27.33
2022-08-21T14:02:40.746Z,27.39
2022-08-21T14:05:16.876Z,27.43
2022-08-21T14:07:45.209Z,27.47
2022-08-21T14:10:15.192Z,27.44
2022-08-21T14:12:44.204Z,27.37
2022-08-21T14:15:14.878Z,27.20
2022-08-21T14:17:43.368Z,27.16
2022-08-21T14:20:14.534Z,27.03
2022-08-21T14:22:44.342Z,26.85
2022-08-21T14:25:13.606Z,26.63
2022-08-21T14:27:44.631Z,26.55
2022-08-21T14:30:13.947Z,26.47
2022-08-21T14:32:45.980Z,26.37
2022-08-21T14:35:15.699Z,26.37
2022-08-21T14:37:43.987Z,26.33
2022-08-21T14:40:13.705Z,26.34
2022-08-21T14:42:42.233Z,26.27
2022-08-21T14:45:14.052Z,26.08
2022-08-21T14:47:41.868Z,25.98
2022-08-21T14:50:09.754Z,26.00
2022-08-21T14:52:38.787Z,26.06
2022-08-21T14:55:06.839Z,26.08
2022-08-21T14:57:34.811Z,26.13
2022-08-21T15:00:02.486Z,26.04
2022-08-21T15:02:30.130Z,25.82
2022-08-21T15:04:57.794Z,25.64
2022-08-21T15:07:25.749Z,25.54
2022-08-21T15:09:54.701Z,25.53
2022-08-21T15:12:22.285Z,25.45
2022-08-21T15:14:49.883Z,25.33
2022-08-21T15:17:18.972Z,25.10
2022-08-21T15:19:49.208Z,25.01
2022-08-21T15:22:19.058Z,24.86
2022-08-21T15:24:51.380Z,24.58
2022-08-21T15:27:23.136Z,24.39
2022-08-21T15:29:53.538Z,24.15
2022-08-21T15:32:23.870Z,24.02
2022-08-21T15:34:51.856Z,23.94
2022-08-21T15:37:19.572Z,23.88
2022-08-21T15:39:52.204Z,23.88
2022-08-21T15:42:24.126Z,23.74
2022-08-21T15:44:52.045Z,23.71
2022-08-21T15:47:21.212Z,23.69
2022-08-21T15:49:48.793Z,23.67
2022-08-21T15:52:16.805Z,23.69
2022-08-21T15:54:44.346Z,23.66
2022-08-21T15:57:13.872Z,23.62
2022-08-21T15:59:43.992Z,23.62
2022-08-21T16:02:14.179Z,23.72
2022-08-21T16:04:41.711Z,23.81
2022-08-21T16:07:09.852Z,23.91
2022-08-21T16:09:37.806Z,23.96
2022-08-21T16:12:06.587Z,23.94
2022-08-21T16:14:37.147Z,23.89
2022-08-21T16:17:07.709Z,23.94
2022-08-21T16:19:35.544Z,24.04
2022-08-21T16:22:03.324Z,24.15
2022-08-21T16:24:31.076Z,24.15
2022-08-21T16:27:01.333Z,24.10
2022-08-21T16:29:34.411Z,24.15
2022-08-21T16:32:02.033Z,24.19
2022-08-21T16:34:31.400Z,24.22
2022-08-21T16:36:59.070Z,24.28
2022-08-21T16:39:28.981Z,24.31
2022-08-21T16:41:56.875Z,24.24
2022-08-21T16:44:24.702Z,24.13
2022-08-21T16:46:52.611Z,24.05
2022-08-21T16:49:20.183Z,23.87
2022-08-21T16:51:49.996Z,23.78
2022-08-21T16:54:17.836Z,23.66
2022-08-21T16:56:47.850Z,23.48
2022-08-21T16:59:17.463Z,23.42
2022-08-21T17:01:45.885Z,23.41
2022-08-21T17:04:13.929Z,23.42
2022-08-21T17:06:43.975Z,23.23
2022-08-21T17:09:13.407Z,23.11
2022-08-21T17:11:42.556Z,23.10
2022-08-21T17:14:12.026Z,23.10
2022-08-21T17:16:40.737Z,23.06
2022-08-21T17:19:09.817Z,23.02
2022-08-21T17:21:37.403Z,22.99
2022-08-21T17:24:05.349Z,22.98
2022-08-21T17:26:34.780Z,22.89
2022-08-21T17:29:02.395Z,22.83
2022-08-21T17:31:30.585Z,22.81
2022-08-21T17:33:58.159Z,22.71
2022-08-21T17:36:26.958Z,22.55
2022-08-21T17:38:55.208Z,22.42
2022-08-21T17:41:22.988Z,22.32
2022-08-21T17:43:52.461Z,22.27
2022-08-21T17:46:24.786Z,22.27
2022-08-21T17:48:52.470Z,22.24
2022-08-21T17:51:20.242Z,22.21
2022-08-21T17:53:47.844Z,22.17
2022-08-21T17:56:16.859Z,22.09
2022-08-21T17:58:46.776Z,22.02
2022-08-21T18:01:17.471Z,21.94
2022-08-21T18:03:47.030Z,21.85
2022-08-21T18:06:17.760Z,21.76
2022-08-21T18:08:46.245Z,21.67
2022-08-21T18:11:17.992Z,21.58
2022-08-21T18:13:53.418Z,21.48
2022-08-21T18:16:22.808Z,21.40
2022-08-21T18:18:51.520Z,21.32
2022-08-21T18:21:19.203Z,21.23
2022-08-21T18:23:46.926Z,21.16
2022-08-21T18:26:15.549Z,21.09
2022-08-21T18:28:44.156Z,21.01
2022-08-21T18:31:12.550Z,20.93
2022-08-21T18:33:43.616Z,20.84
2022-08-21T18:36:24.622Z,20.76
2022-08-21T18:38:53.805Z,20.70
2022-08-21T18:41:22.127Z,20.63
2022-08-21T18:43:50.197Z,20.58
2022-08-21T18:46:19.027Z,20.50
2022-08-21T18:48:48.041Z,20.40
2022-08-21T18:51:17.474Z,20.32
2022-08-21T18:53:47.737Z,20.24
2022-08-21T18:56:21.865Z,20.16
2022-08-21T18:58:50.805Z,20.09
2022-08-21T19:01:18.590Z,19.99
2022-08-21T19:03:46.257Z,19.92
2022-08-21T19:06:18.823Z,19.85
2022-08-21T19:08:46.823Z,19.78
2022-08-21T19:11:14.409Z,19.70
2022-08-21T19:13:51.741Z,19.63
2022-08-21T19:16:20.608Z,19.56
2022-08-21T19:18:48.336Z,19.48
2022-08-21T19:21:16.340Z,19.41
2022-08-21T19:23:48.224Z,19.35
2022-08-21T19:26:21.865Z,19.30
2022-08-21T19:28:51.499Z,19.23
2022-08-21T19:34:09.537Z,19.09
2022-08-21T19:36:37.295Z,19.05
2022-08-21T19:39:08.330Z,19.00
2022-08-21T19:41:38.652Z,18.97
2022-08-21T19:44:09.235Z,18.91
2022-08-21T19:46:38.682Z,18.87
2022-08-21T19:49:08.770Z,18.81
2022-08-21T19:51:38.209Z,18.75
2022-08-21T19:56:56.042Z,18.67
2022-08-21T19:59:25.480Z,18.65
2022-08-21T20:01:53.106Z,18.59
2022-08-21T20:04:20.711Z,18.55
2022-08-21T20:06:48.958Z,18.51
2022-08-21T20:09:18.501Z,18.47
2022-08-21T20:11:49.095Z,18.44
2022-08-21T20:14:19.162Z,18.40
2022-08-21T20:16:47.582Z,18.37
2022-08-21T20:19:15.172Z,18.33
2022-08-21T20:21:44.608Z,18.30
2022-08-21T20:24:14.647Z,18.27
2022-08-21T20:26:49.349Z,18.25
2022-08-21T20:29:24.172Z,18.23
2022-08-21T20:31:56.899Z,18.20
2022-08-21T20:34:25.490Z,18.17
2022-08-21T20:36:53.436Z,18.15
2022-08-21T20:39:23.752Z,18.10
2022-08-21T20:41:54.635Z,18.09
2022-08-21T20:44:22.739Z,18.04
2022-08-21T20:46:55.411Z,18.02
2022-08-21T20:49:26.744Z,17.99
2022-08-21T20:51:54.992Z,17.96
2022-08-21T20:54:26.589Z,17.94
2022-08-21T20:56:57.875Z,17.92
2022-08-21T20:59:35.559Z,17.90
2022-08-21T21:04:58.966Z,17.87
2022-08-21T21:07:28.966Z,17.84
2022-08-21T21:10:00.287Z,17.82
2022-08-21T21:12:32.519Z,17.79
2022-08-21T21:15:02.116Z,17.77
2022-08-21T21:17:35.741Z,17.75
2022-08-21T21:20:10.101Z,17.74
2022-08-21T21:22:39.795Z,17.73
2022-08-21T21:25:09.001Z,17.71
2022-08-21T21:27:41.431Z,17.69
2022-08-21T21:30:12.108Z,17.67
2022-08-21T21:32:58.960Z,17.67
2022-08-21T21:35:32.567Z,17.65
2022-08-21T21:38:10.637Z,17.64
2022-08-21T21:40:43.440Z,17.62
2022-08-21T21:43:18.483Z,17.60
2022-08-21T21:45:55.701Z,17.55
2022-08-21T21:48:38.210Z,17.54
2022-08-21T21:51:12.200Z,17.51
2022-08-21T21:54:05.454Z,17.50
2022-08-21T21:56:36.031Z,17.48
2022-08-21T21:59:25.330Z,17.46
2022-08-21T22:02:02.999Z,17.42
2022-08-21T22:04:34.277Z,17.39
2022-08-21T22:07:09.766Z,17.35
2022-08-21T22:09:44.450Z,17.33
2022-08-21T22:12:22.961Z,17.31
2022-08-21T22:14:53.491Z,17.28
2022-08-21T22:17:30.092Z,17.26
2022-08-21T22:19:59.217Z,17.24
2022-08-21T22:22:27.958Z,17.20
2022-08-21T22:25:00.740Z,17.18
2022-08-21T22:27:31.901Z,17.14
2022-08-21T22:30:02.239Z,17.11
2022-08-21T22:32:31.673Z,17.07
2022-08-21T22:35:03.575Z,17.04
2022-08-21T22:37:34.887Z,17.00
2022-08-21T22:40:03.297Z,16.98
2022-08-21T22:42:31.265Z,16.95
2022-08-21T22:44:59.703Z,16.91
2022-08-21T22:47:34.471Z,16.87
2022-08-21T22:50:04.992Z,16.83
2022-08-21T22:52:34.364Z,16.80
2022-08-21T22:55:04.946Z,16.77
2022-08-21T22:57:33.544Z,16.75
2022-08-21T23:00:02.741Z,16.72
2022-08-21T23:02:35.388Z,16.70
2022-08-21T23:05:10.307Z,16.67
2022-08-21T23:07:43.498Z,16.64
2022-08-21T23:10:19.051Z,16.62
2022-08-21T23:12:49.117Z,16.59
2022-08-21T23:15:17.899Z,16.58
2022-08-21T23:20:40.678Z,16.55
2022-08-21T23:23:14.001Z,16.53
2022-08-21T23:25:54.195Z,16.52
2022-08-21T23:28:27.943Z,16.51
2022-08-21T23:30:59.369Z,16.50
2022-08-21T23:33:38.615Z,16.47
2022-08-21T23:36:28.406Z,16.45
2022-08-21T23:39:05.242Z,16.44
2022-08-21T23:41:37.551Z,16.42
2022-08-21T23:44:11.037Z,16.42
2022-08-21T23:46:53.607Z,16.42
2022-08-21T23:49:28.943Z,16.41
2022-08-21T23:52:04.356Z,16.41
2022-08-21T23:54:36.117Z,16.40
2022-08-21T23:57:12.640Z,16.38
2022-08-21T23:59:44.569Z,16.35
